createdAt,value
2018-05-21T00:02:31.760Z,17.00
2018-05-21T00:06:06.468Z,16.90
2018-05-21T00:09:39.143Z,16.90
2018-05-21T00:13:12.542Z,16.80
2018-05-21T00:16:45.199Z,16.80
2018-05-21T00:20:17.755Z,16.70
2018-05-21T00:23:50.327Z,16.70
2018-05-21T00:27:25.314Z,16.60
2018-05-21T00:31:01.797Z,16.60
2018-05-21T00:34:41.632Z,16.50
2018-05-21T00:38:14.998Z,16.50
2018-05-21T00:41:49.639Z,16.40
2018-05-21T00:45:32.370Z,16.40
2018-05-21T00:49:08.218Z,16.30
2018-05-21T00:52:45.992Z,16.40
2018-05-21T00:56:22.071Z,16.30
2018-05-21T00:59:58.663Z,16.30
2018-05-21T01:03:34.391Z,16.30
2018-05-21T01:07:09.580Z,16.30
2018-05-21T01:10:47.615Z,16.20
2018-05-21T01:14:24.986Z,16.20
2018-05-21T01:18:01.947Z,16.20
2018-05-21T01:21:35.146Z,16.20
2018-05-21T01:25:07.725Z,16.10
2018-05-21T01:28:41.145Z,16.10
2018-05-21T01:32:13.706Z,16.10
2018-05-21T01:35:46.306Z,16.00
2018-05-21T01:39:22.118Z,16.00
2018-05-21T01:42:55.549Z,15.90
2018-05-21T01:46:31.429Z,15.90
2018-05-21T01:50:08.408Z,15.90
2018-05-21T01:53:41.830Z,15.80
2018-05-21T01:57:15.211Z,15.80
2018-05-21T02:00:47.810Z,15.80
2018-05-21T02:04:20.391Z,15.70
2018-05-21T02:07:52.943Z,15.70
2018-05-21T02:11:25.482Z,15.60
2018-05-21T02:14:58.030Z,15.60
2018-05-21T02:18:30.595Z,15.50
2018-05-21T02:22:03.133Z,15.50
2018-05-21T02:25:35.706Z,15.50
2018-05-21T02:29:08.306Z,15.50
2018-05-21T02:32:40.871Z,15.50
2018-05-21T02:36:13.437Z,15.50
2018-05-21T02:39:45.978Z,15.50
2018-05-21T02:43:18.547Z,15.50
2018-05-21T02:46:51.099Z,15.50
2018-05-21T02:50:23.666Z,15.50
2018-05-21T02:53:56.237Z,15.40
2018-05-21T02:57:28.817Z,15.40
2018-05-21T03:01:01.452Z,15.40
2018-05-21T03:04:34.000Z,15.40
2018-05-21T03:08:06.614Z,15.50
2018-05-21T03:11:39.185Z,15.40
2018-05-21T03:15:11.714Z,15.50
2018-05-21T03:18:44.305Z,15.40
2018-05-21T03:22:17.700Z,15.40
2018-05-21T03:25:51.004Z,15.50
2018-05-21T03:29:24.285Z,15.50
2018-05-21T03:32:56.826Z,15.50
2018-05-21T03:36:29.433Z,15.50
2018-05-21T03:40:01.971Z,15.50
2018-05-21T03:43:35.281Z,15.40
2018-05-21T03:47:07.828Z,15.40
2018-05-21T03:50:40.326Z,15.40
2018-05-21T03:54:12.840Z,15.40
2018-05-21T03:57:45.373Z,15.40
2018-05-21T04:01:29.714Z,15.50
2018-05-21T04:05:02.206Z,15.50
2018-05-21T04:08:35.543Z,15.50
2018-05-21T04:12:08.837Z,15.50
2018-05-21T04:15:42.821Z,15.60
2018-05-21T04:19:15.338Z,15.50
2018-05-21T04:22:48.621Z,15.70
2018-05-21T04:26:21.135Z,15.70
2018-05-21T04:29:54.498Z,15.80
2018-05-21T04:33:27.019Z,15.70
2018-05-21T04:37:00.305Z,15.90
2018-05-21T04:40:33.596Z,15.90
2018-05-21T04:44:06.101Z,15.90
2018-05-21T04:47:38.676Z,15.90
2018-05-21T04:51:11.957Z,16.10
2018-05-21T04:54:44.483Z,16.10
2018-05-21T04:58:17.043Z,16.20
2018-05-21T05:01:50.377Z,16.50
2018-05-21T05:05:22.937Z,16.50
2018-05-21T05:08:55.470Z,16.60
2018-05-21T05:12:28.057Z,17.10
2018-05-21T05:16:00.631Z,17.30
2018-05-21T05:19:33.219Z,17.20
2018-05-21T05:23:05.789Z,17.10
2018-05-21T05:26:38.402Z,17.20
2018-05-21T05:30:11.656Z,17.40
2018-05-21T05:33:44.210Z,17.40
2018-05-21T05:37:16.789Z,17.40
2018-05-21T05:40:50.181Z,17.30
2018-05-21T05:44:22.767Z,17.30
2018-05-21T05:47:55.295Z,17.30
2018-05-21T05:51:28.192Z,17.30
2018-05-21T05:55:00.788Z,17.40
2018-05-21T05:58:33.385Z,17.50
2018-05-21T06:02:05.970Z,17.50
2018-05-21T06:05:38.870Z,17.60
2018-05-21T06:09:11.672Z,17.70
2018-05-21T06:12:44.952Z,17.80
2018-05-21T06:16:17.643Z,17.90
2018-05-21T06:19:53.495Z,18.00
2018-05-21T06:23:28.977Z,18.30
2018-05-21T06:27:04.958Z,18.30
2018-05-21T06:30:41.682Z,18.50
2018-05-21T06:34:14.418Z,18.60
2018-05-21T06:37:50.069Z,18.70
2018-05-21T06:41:24.228Z,18.70
2018-05-21T06:44:56.787Z,18.70
2018-05-21T06:48:29.362Z,18.90
2018-05-21T06:52:01.952Z,19.00
2018-05-21T06:55:36.142Z,19.10
2018-05-21T06:59:08.740Z,19.10
2018-05-21T07:02:41.241Z,19.20
2018-05-21T07:06:13.729Z,19.30
2018-05-21T07:09:46.999Z,19.70
2018-05-21T07:13:19.492Z,19.70
2018-05-21T07:16:51.970Z,19.80
2018-05-21T07:20:25.971Z,19.90
2018-05-21T07:23:58.463Z,19.90
2018-05-21T07:27:30.952Z,20.00
2018-05-21T07:31:03.437Z,20.10
2018-05-21T07:34:35.923Z,20.30
2018-05-21T07:38:08.408Z,20.60
2018-05-21T07:41:40.896Z,20.90
2018-05-21T07:45:14.167Z,21.00
2018-05-21T07:48:46.665Z,21.00
2018-05-21T07:52:19.164Z,21.10
2018-05-21T07:55:51.653Z,21.10
2018-05-21T07:59:24.907Z,21.30
2018-05-21T08:02:57.408Z,21.30
2018-05-21T08:06:30.666Z,21.50
2018-05-21T08:10:03.156Z,21.40
2018-05-21T08:13:35.656Z,21.60
2018-05-21T08:17:08.144Z,21.60
2018-05-21T08:20:41.388Z,21.70
2018-05-21T08:24:14.649Z,21.70
2018-05-21T08:27:47.144Z,21.70
2018-05-21T08:31:19.637Z,21.80
2018-05-21T08:34:52.140Z,21.90
2018-05-21T08:38:25.400Z,22.10
2018-05-21T08:41:57.901Z,22.10
2018-05-21T08:45:30.380Z,22.20
2018-05-21T08:49:02.868Z,22.40
2018-05-21T08:52:36.123Z,22.80
2018-05-21T08:56:08.614Z,22.70
2018-05-21T08:59:41.088Z,22.90
2018-05-21T09:03:13.589Z,23.00
2018-05-21T09:06:46.076Z,23.10
2018-05-21T09:10:18.560Z,23.30
2018-05-21T09:13:51.069Z,23.40
2018-05-21T09:17:24.325Z,23.60
2018-05-21T09:20:56.813Z,23.50
2018-05-21T09:24:30.069Z,23.80
2018-05-21T09:28:02.564Z,23.80
2018-05-21T09:31:35.058Z,23.90
2018-05-21T09:35:07.553Z,23.80
2018-05-21T09:38:40.045Z,23.90
2018-05-21T09:42:12.536Z,23.90
2018-05-21T09:45:45.025Z,23.90
2018-05-21T09:49:17.507Z,24.00
2018-05-21T09:52:50.004Z,24.10
2018-05-21T09:56:23.268Z,24.30
2018-05-21T09:59:55.752Z,24.30
2018-05-21T10:03:28.229Z,24.40
2018-05-21T10:07:00.724Z,24.40
2018-05-21T10:10:33.212Z,24.50
2018-05-21T10:14:06.441Z,24.60
2018-05-21T10:21:35.229Z,24.70
2018-05-21T10:25:07.724Z,24.70
2018-05-21T10:28:40.204Z,24.80
2018-05-21T10:32:12.702Z,24.80
2018-05-21T10:35:45.201Z,24.60
2018-05-21T10:39:17.701Z,24.60
2018-05-21T10:42:50.191Z,24.70
2018-05-21T10:46:22.693Z,24.80
2018-05-21T10:49:55.191Z,25.00
2018-05-21T10:53:27.684Z,25.00
2018-05-21T10:57:00.250Z,25.10
2018-05-21T11:00:32.697Z,25.10
2018-05-21T11:04:05.206Z,25.10
2018-05-21T11:07:37.690Z,24.90
2018-05-21T11:11:10.186Z,24.90
2018-05-21T11:14:42.679Z,25.00
2018-05-21T11:18:15.157Z,25.00
2018-05-21T11:21:47.644Z,25.10
2018-05-21T11:25:20.149Z,25.20
2018-05-21T11:28:52.650Z,25.30
2018-05-21T11:32:25.132Z,25.50
2018-05-21T11:35:57.620Z,25.50
2018-05-21T11:39:30.117Z,25.60
2018-05-21T11:43:02.601Z,25.70
2018-05-21T11:46:35.093Z,25.80
2018-05-21T11:50:07.585Z,25.70
2018-05-21T11:53:40.100Z,25.60
2018-05-21T11:57:13.353Z,25.40
2018-05-21T12:00:45.843Z,25.40
2018-05-21T12:04:18.331Z,25.40
2018-05-21T12:07:50.837Z,25.40
2018-05-21T12:11:23.340Z,25.50
2018-05-21T12:14:55.843Z,25.50
2018-05-21T12:18:28.372Z,25.60
2018-05-21T12:22:00.867Z,25.60
2018-05-21T12:25:34.120Z,25.50
2018-05-21T12:29:06.616Z,25.50
2018-05-21T12:32:39.105Z,25.40
2018-05-21T12:36:11.598Z,25.40
2018-05-21T12:39:44.104Z,25.40
2018-05-21T12:43:17.367Z,25.30
2018-05-21T12:46:49.974Z,25.30
2018-05-21T12:50:22.405Z,25.30
2018-05-21T12:53:54.898Z,25.40
2018-05-21T12:57:27.397Z,25.50
2018-05-21T13:00:59.883Z,25.60
2018-05-21T13:04:32.387Z,25.60
2018-05-21T13:08:05.645Z,25.60
2018-05-21T13:11:38.152Z,25.50
2018-05-21T13:15:10.643Z,25.70
2018-05-21T13:18:43.136Z,25.90
2018-05-21T13:22:16.476Z,26.30
2018-05-21T13:25:48.886Z,26.20
2018-05-21T13:29:21.396Z,26.40
2018-05-21T13:32:54.662Z,26.70
2018-05-21T13:36:27.159Z,26.60
2018-05-21T13:39:59.637Z,26.60
2018-05-21T13:43:32.132Z,26.40
2018-05-21T13:47:04.638Z,26.50
2018-05-21T13:50:37.900Z,26.40
2018-05-21T13:54:10.399Z,26.40
2018-05-21T13:57:42.897Z,26.40
2018-05-21T14:01:16.155Z,25.90
2018-05-21T14:04:48.638Z,25.90
2018-05-21T14:08:21.133Z,25.70
2018-05-21T14:11:53.623Z,25.70
2018-05-21T14:15:26.104Z,25.60
2018-05-21T14:18:58.604Z,25.60
2018-05-21T14:22:31.859Z,25.60
2018-05-21T14:26:04.357Z,25.50
2018-05-21T14:29:36.879Z,25.80
2018-05-21T14:33:10.179Z,26.10
2018-05-21T14:36:42.645Z,26.00
2018-05-21T14:40:15.139Z,26.10
2018-05-21T14:43:47.645Z,26.00
2018-05-21T14:47:20.147Z,26.10
2018-05-21T14:50:52.647Z,26.30
2018-05-21T14:54:25.128Z,26.70
2018-05-21T14:57:57.620Z,26.90
2018-05-21T15:01:30.111Z,27.10
2018-05-21T15:05:02.596Z,27.60
2018-05-21T15:08:35.086Z,27.90
2018-05-21T15:12:08.349Z,27.70
2018-05-21T15:15:40.828Z,27.70
2018-05-21T15:19:13.345Z,27.50
2018-05-21T15:22:45.834Z,27.60
2018-05-21T15:26:19.109Z,27.60
2018-05-21T15:29:51.614Z,27.60
2018-05-21T15:33:24.880Z,27.00
2018-05-21T15:36:57.372Z,27.00
2018-05-21T15:40:29.855Z,27.20
2018-05-21T15:44:02.357Z,27.60
2018-05-21T15:47:34.854Z,28.00
2018-05-21T15:51:08.115Z,28.90
2018-05-21T15:54:40.597Z,28.80
2018-05-21T15:58:13.104Z,29.30
2018-05-21T16:01:45.588Z,29.40
2018-05-21T16:05:18.847Z,29.60
2018-05-21T16:08:51.342Z,29.50
2018-05-21T16:12:23.871Z,29.80
2018-05-21T16:15:57.156Z,30.20
2018-05-21T16:19:29.645Z,30.20
2018-05-21T16:23:02.160Z,30.30
2018-05-21T16:26:34.662Z,30.20
2018-05-21T16:30:07.239Z,30.00
2018-05-21T16:33:39.748Z,29.50
2018-05-21T16:37:12.616Z,28.80
2018-05-21T16:40:45.096Z,28.30
2018-05-21T16:44:17.605Z,27.80
2018-05-21T16:47:50.187Z,27.40
2018-05-21T16:51:23.451Z,26.80
2018-05-21T16:54:55.932Z,26.80
2018-05-21T16:58:28.427Z,26.50
2018-05-21T17:02:00.917Z,26.20
2018-05-21T17:05:33.404Z,26.00
2018-05-21T17:09:05.881Z,25.90
2018-05-21T17:12:38.372Z,25.70
2018-05-21T17:16:10.861Z,25.40
2018-05-21T17:19:43.340Z,25.20
2018-05-21T17:23:15.835Z,24.90
2018-05-21T17:26:48.329Z,24.60
2018-05-21T17:30:20.813Z,24.40
2018-05-21T17:33:54.059Z,24.20
2018-05-21T17:37:26.561Z,24.20
2018-05-21T17:40:59.051Z,24.10
2018-05-21T17:44:31.545Z,23.90
2018-05-21T17:48:04.039Z,23.80
2018-05-21T17:51:36.608Z,23.70
2018-05-21T17:55:09.785Z,23.40
2018-05-21T17:58:42.260Z,23.40
2018-05-21T18:02:14.752Z,23.20
2018-05-21T18:05:47.240Z,23.10
2018-05-21T18:09:19.767Z,22.90
2018-05-21T18:12:53.009Z,22.60
2018-05-21T18:16:25.500Z,22.60
2018-05-21T18:19:57.996Z,22.50
2018-05-21T18:23:30.484Z,22.40
2018-05-21T18:27:02.981Z,22.30
2018-05-21T18:30:36.258Z,22.10
2018-05-21T18:34:09.321Z,22.10
2018-05-21T18:37:41.799Z,22.00
2018-05-21T18:41:14.327Z,21.90
2018-05-21T18:44:46.865Z,21.80
2018-05-21T18:48:19.406Z,21.70
2018-05-21T18:51:51.848Z,21.70
2018-05-21T18:55:24.357Z,21.60
2018-05-21T18:58:56.848Z,21.60
2018-05-21T19:02:29.337Z,21.50
2018-05-21T19:06:02.619Z,21.40
2018-05-21T19:09:35.105Z,21.40
2018-05-21T19:13:07.602Z,21.40
2018-05-21T19:16:40.845Z,21.30
2018-05-21T19:20:15.149Z,21.30
2018-05-21T19:23:47.726Z,21.20
2018-05-21T19:27:20.222Z,21.10
2018-05-21T19:30:52.739Z,21.00
2018-05-21T19:34:25.277Z,21.00
2018-05-21T19:37:57.788Z,21.00
2018-05-21T19:41:30.306Z,20.90
2018-05-21T19:45:02.835Z,20.90
2018-05-21T19:48:35.361Z,20.80
2018-05-21T19:52:07.855Z,20.80
2018-05-21T19:55:40.357Z,20.70
2018-05-21T19:59:13.629Z,20.50
2018-05-21T20:02:46.137Z,20.40
2018-05-21T20:06:19.388Z,20.30
2018-05-21T20:09:52.657Z,20.30
2018-05-21T20:13:25.210Z,20.30
2018-05-21T20:16:58.470Z,20.30
2018-05-21T20:20:42.628Z,20.30
2018-05-21T20:24:15.120Z,20.20
2018-05-21T20:27:47.608Z,20.20
2018-05-21T20:31:20.140Z,20.20
2018-05-21T20:34:52.596Z,20.10
2018-05-21T20:38:25.099Z,20.10
2018-05-21T20:41:59.041Z,20.10
2018-05-21T20:45:31.607Z,20.00
2018-05-21T20:49:04.182Z,19.90
2018-05-21T20:52:37.852Z,19.90
2018-05-21T20:56:10.353Z,19.90
2018-05-21T20:59:44.545Z,19.80
2018-05-21T21:03:17.061Z,19.80
2018-05-21T21:06:51.963Z,19.60
2018-05-21T21:10:24.437Z,19.60
2018-05-21T21:13:56.929Z,19.60
2018-05-21T21:17:29.420Z,19.50
2018-05-21T21:21:01.917Z,19.40
2018-05-21T21:24:34.407Z,19.40
2018-05-21T21:28:06.896Z,19.30
2018-05-21T21:31:40.159Z,19.20
2018-05-21T21:35:12.648Z,19.20
2018-05-21T21:38:45.175Z,19.10
2018-05-21T21:42:18.432Z,19.00
2018-05-21T21:45:50.916Z,19.00
2018-05-21T21:49:23.408Z,19.00
2018-05-21T21:52:55.908Z,19.00
2018-05-21T21:56:28.435Z,19.00
2018-05-21T22:00:00.925Z,19.00
2018-05-21T22:03:33.412Z,19.00
2018-05-21T22:07:05.902Z,19.00
2018-05-21T22:10:38.389Z,19.00
2018-05-21T22:14:10.860Z,19.00
2018-05-21T22:17:43.354Z,19.00
2018-05-21T22:21:15.841Z,19.00
2018-05-21T22:24:48.321Z,19.00
2018-05-21T22:28:20.817Z,18.90
2018-05-21T22:31:54.075Z,18.80
2018-05-21T22:35:26.560Z,18.80
2018-05-21T22:38:59.046Z,18.80
2018-05-21T22:42:31.628Z,18.70
2018-05-21T22:46:04.116Z,18.70
2018-05-21T22:49:36.601Z,18.70
2018-05-21T22:53:09.078Z,18.70
2018-05-21T22:56:41.560Z,18.60
2018-05-21T23:00:14.050Z,18.60
2018-05-21T23:03:46.528Z,18.50
2018-05-21T23:07:19.018Z,18.50
2018-05-21T23:10:51.501Z,18.50
2018-05-21T23:14:24.002Z,18.50
2018-05-21T23:17:56.485Z,18.40
2018-05-21T23:21:29.745Z,18.40
2018-05-21T23:25:02.233Z,18.40
2018-05-21T23:28:34.705Z,18.40
2018-05-21T23:32:07.200Z,18.30
2018-05-21T23:35:39.693Z,18.30
2018-05-21T23:39:12.177Z,18.20
2018-05-21T23:42:44.664Z,18.20
2018-05-21T23:46:17.152Z,18.10
2018-05-21T23:49:49.634Z,18.10
2018-05-21T23:53:22.114Z,18.00
2018-05-21T23:56:54.596Z,18.00
